sensor_id;sensor_type;location;lat;lon;timestamp;P1;durP1;ratioP1;P2;durP2;ratioP2
19495;SDS011;9888;48.606;9.630;2022-09-09T00:01:00;6.13;;;1.97;;
19495;SDS011;9888;48.606;9.630;2022-09-09T00:03:55;6.97;;;2.20;;
19495;SDS011;9888;48.606;9.630;2022-09-09T00:13:01;7.57;;;2.30;;
19495;SDS011;9888;48.606;9.630;2022-09-09T00:25:19;9.90;;;2.10;;
19495;SDS011;9888;48.606;9.630;2022-09-09T00:28:20;6.23;;;2.53;;
19495;SDS011;9888;48.606;9.630;2022-09-09T00:30:52;5.97;;;2.10;;
19495;SDS011;9888;48.606;9.630;2022-09-09T00:36:36;6.37;;;2.00;;
19495;SDS011;9888;48.606;9.630;2022-09-09T00:39:19;6.40;;;2.20;;
19495;SDS011;9888;48.606;9.630;2022-09-09T00:48:12;6.60;;;2.30;;
19495;SDS011;9888;48.606;9.630;2022-09-09T00:53:38;5.20;;;1.90;;
19495;SDS011;9888;48.606;9.630;2022-09-09T00:56:28;6.40;;;2.20;;
19495;SDS011;9888;48.606;9.630;2022-09-09T01:02:39;6.53;;;2.20;;
19495;SDS011;9888;48.606;9.630;2022-09-09T01:15:27;7.20;;;2.50;;
19495;SDS011;9888;48.606;9.630;2022-09-09T01:21:30;5.00;;;1.97;;
19495;SDS011;9888;48.606;9.630;2022-09-09T01:27:09;6.27;;;2.10;;
19495;SDS011;9888;48.606;9.630;2022-09-09T01:29:47;5.43;;;2.13;;
19495;SDS011;9888;48.606;9.630;2022-09-09T01:38:10;5.40;;;2.30;;
19495;SDS011;9888;48.606;9.630;2022-09-09T01:40:50;6.73;;;2.20;;
19495;SDS011;9888;48.606;9.630;2022-09-09T01:46:38;6.43;;;2.23;;
19495;SDS011;9888;48.606;9.630;2022-09-09T01:52:02;5.53;;;1.70;;
19495;SDS011;9888;48.606;9.630;2022-09-09T01:54:37;5.90;;;2.00;;
19495;SDS011;9888;48.606;9.630;2022-09-09T02:02:38;6.50;;;2.20;;
19495;SDS011;9888;48.606;9.630;2022-09-09T02:11:26;6.83;;;1.73;;
19495;SDS011;9888;48.606;9.630;2022-09-09T02:24:06;5.37;;;1.80;;
19495;SDS011;9888;48.606;9.630;2022-09-09T02:30:04;7.27;;;1.90;;
19495;SDS011;9888;48.606;9.630;2022-09-09T02:39:33;5.13;;;1.73;;
19495;SDS011;9888;48.606;9.630;2022-09-09T02:42:25;11.50;;;2.07;;
19495;SDS011;9888;48.606;9.630;2022-09-09T02:45:02;5.20;;;1.73;;
19495;SDS011;9888;48.606;9.630;2022-09-09T02:47:44;5.80;;;1.73;;
19495;SDS011;9888;48.606;9.630;2022-09-09T02:51:07;5.90;;;2.03;;
19495;SDS011;9888;48.606;9.630;2022-09-09T02:56:53;7.47;;;2.10;;
19495;SDS011;9888;48.606;9.630;2022-09-09T02:59:22;6.03;;;2.00;;
19495;SDS011;9888;48.606;9.630;2022-09-09T03:02:07;5.70;;;2.00;;
19495;SDS011;9888;48.606;9.630;2022-09-09T03:04:37;5.63;;;1.73;;
19495;SDS011;9888;48.606;9.630;2022-09-09T03:13:08;5.47;;;2.03;;
19495;SDS011;9888;48.606;9.630;2022-09-09T03:15:35;5.97;;;1.83;;
19495;SDS011;9888;48.606;9.630;2022-09-09T03:28:24;5.53;;;1.90;;
19495;SDS011;9888;48.606;9.630;2022-09-09T03:31:01;8.07;;;2.40;;
19495;SDS011;9888;48.606;9.630;2022-09-09T03:33:32;5.67;;;2.00;;
19495;SDS011;9888;48.606;9.630;2022-09-09T03:36:02;6.83;;;2.20;;
19495;SDS011;9888;48.606;9.630;2022-09-09T03:38:30;6.50;;;2.00;;
19495;SDS011;9888;48.606;9.630;2022-09-09T03:40:59;6.50;;;2.07;;
19495;SDS011;9888;48.606;9.630;2022-09-09T03:43:27;7.50;;;2.20;;
19495;SDS011;9888;48.606;9.630;2022-09-09T03:45:59;7.43;;;2.20;;
19495;SDS011;9888;48.606;9.630;2022-09-09T03:48:27;5.30;;;1.83;;
19495;SDS011;9888;48.606;9.630;2022-09-09T03:50:58;6.43;;;2.30;;
19495;SDS011;9888;48.606;9.630;2022-09-09T03:53:31;5.33;;;1.97;;
19495;SDS011;9888;48.606;9.630;2022-09-09T03:56:14;5.90;;;2.10;;
19495;SDS011;9888;48.606;9.630;2022-09-09T04:02:06;7.93;;;2.17;;
19495;SDS011;9888;48.606;9.630;2022-09-09T04:04:37;9.53;;;2.00;;
19495;SDS011;9888;48.606;9.630;2022-09-09T04:07:05;10.60;;;2.43;;
19495;SDS011;9888;48.606;9.630;2022-09-09T04:09:33;7.00;;;2.40;;
19495;SDS011;9888;48.606;9.630;2022-09-09T04:12:01;6.00;;;2.17;;
19495;SDS011;9888;48.606;9.630;2022-09-09T04:14:28;6.43;;;2.30;;
19495;SDS011;9888;48.606;9.630;2022-09-09T04:16:56;9.07;;;2.50;;
19495;SDS011;9888;48.606;9.630;2022-09-09T04:19:25;7.10;;;2.60;;
19495;SDS011;9888;48.606;9.630;2022-09-09T04:21:52;5.70;;;2.43;;
19495;SDS011;9888;48.606;9.630;2022-09-09T04:24:28;6.47;;;2.67;;
19495;SDS011;9888;48.606;9.630;2022-09-09T04:27:01;10.80;;;2.87;;
19495;SDS011;9888;48.606;9.630;2022-09-09T04:29:30;9.53;;;3.20;;
19495;SDS011;9888;48.606;9.630;2022-09-09T04:31:58;12.43;;;3.10;;
19495;SDS011;9888;48.606;9.630;2022-09-09T04:34:25;12.43;;;3.20;;
19495;SDS011;9888;48.606;9.630;2022-09-09T04:36:56;9.77;;;3.00;;
19495;SDS011;9888;48.606;9.630;2022-09-09T04:39:23;16.30;;;6.90;;
19495;SDS011;9888;48.606;9.630;2022-09-09T04:44:56;9.70;;;3.10;;
19495;SDS011;9888;48.606;9.630;2022-09-09T04:50:41;10.60;;;3.43;;
19495;SDS011;9888;48.606;9.630;2022-09-09T04:53:09;8.87;;;3.57;;
19495;SDS011;9888;48.606;9.630;2022-09-09T04:55:36;15.23;;;3.63;;
19495;SDS011;9888;48.606;9.630;2022-09-09T04:58:07;13.20;;;3.57;;
19495;SDS011;9888;48.606;9.630;2022-09-09T05:00:40;12.40;;;3.90;;
19495;SDS011;9888;48.606;9.630;2022-09-09T05:03:09;10.50;;;3.50;;
19495;SDS011;9888;48.606;9.630;2022-09-09T05:05:40;9.10;;;3.30;;
19495;SDS011;9888;48.606;9.630;2022-09-09T05:08:08;8.60;;;3.00;;
19495;SDS011;9888;48.606;9.630;2022-09-09T05:10:39;16.67;;;3.90;;
19495;SDS011;9888;48.606;9.630;2022-09-09T05:13:07;15.13;;;3.90;;
19495;SDS011;9888;48.606;9.630;2022-09-09T05:15:35;16.90;;;7.30;;
19495;SDS011;9888;48.606;9.630;2022-09-09T05:18:07;19.07;;;7.10;;
19495;SDS011;9888;48.606;9.630;2022-09-09T05:20:36;8.87;;;4.03;;
19495;SDS011;9888;48.606;9.630;2022-09-09T05:23:04;12.03;;;6.10;;
19495;SDS011;9888;48.606;9.630;2022-09-09T05:25:31;17.37;;;8.80;;
19495;SDS011;9888;48.606;9.630;2022-09-09T05:28:01;11.23;;;4.33;;
19495;SDS011;9888;48.606;9.630;2022-09-09T05:30:28;18.40;;;5.30;;
19495;SDS011;9888;48.606;9.630;2022-09-09T05:32:59;9.77;;;3.40;;
19495;SDS011;9888;48.606;9.630;2022-09-09T05:35:28;9.07;;;2.90;;
19495;SDS011;9888;48.606;9.630;2022-09-09T05:38:01;9.17;;;4.47;;
19495;SDS011;9888;48.606;9.630;2022-09-09T05:40:29;14.73;;;3.63;;
19495;SDS011;9888;48.606;9.630;2022-09-09T05:43:02;21.63;;;4.37;;
19495;SDS011;9888;48.606;9.630;2022-09-09T05:45:35;25.13;;;4.33;;
19495;SDS011;9888;48.606;9.630;2022-09-09T05:48:09;9.67;;;3.73;;
19495;SDS011;9888;48.606;9.630;2022-09-09T05:50:37;7.13;;;2.90;;
19495;SDS011;9888;48.606;9.630;2022-09-09T05:53:04;9.17;;;3.13;;
19495;SDS011;9888;48.606;9.630;2022-09-09T05:55:35;13.60;;;3.10;;
19495;SDS011;9888;48.606;9.630;2022-09-09T05:58:05;20.77;;;3.70;;
19495;SDS011;9888;48.606;9.630;2022-09-09T06:00:33;8.27;;;3.10;;
19495;SDS011;9888;48.606;9.630;2022-09-09T06:03:02;15.27;;;4.70;;
19495;SDS011;9888;48.606;9.630;2022-09-09T06:05:29;8.03;;;3.20;;
19495;SDS011;9888;48.606;9.630;2022-09-09T06:07:59;7.97;;;2.80;;
19495;SDS011;9888;48.606;9.630;2022-09-09T06:10:28;17.40;;;3.40;;
19495;SDS011;9888;48.606;9.630;2022-09-09T06:12:56;12.13;;;3.70;;
19495;SDS011;9888;48.606;9.630;2022-09-09T06:22:14;8.13;;;2.90;;
19495;SDS011;9888;48.606;9.630;2022-09-09T06:24:44;7.60;;;2.63;;
19495;SDS011;9888;48.606;9.630;2022-09-09T06:27:16;8.13;;;2.80;;
19495;SDS011;9888;48.606;9.630;2022-09-09T06:29:56;6.17;;;2.70;;
19495;SDS011;9888;48.606;9.630;2022-09-09T06:32:47;7.10;;;2.63;;
19495;SDS011;9888;48.606;9.630;2022-09-09T06:35:16;42.10;;;5.40;;
19495;SDS011;9888;48.606;9.630;2022-09-09T06:37:48;29.60;;;4.50;;
19495;SDS011;9888;48.606;9.630;2022-09-09T06:40:33;12.37;;;3.00;;
19495;SDS011;9888;48.606;9.630;2022-09-09T06:43:05;19.53;;;3.40;;
19495;SDS011;9888;48.606;9.630;2022-09-09T06:45:32;16.40;;;4.73;;
19495;SDS011;9888;48.606;9.630;2022-09-09T06:48:03;26.43;;;4.17;;
19495;SDS011;9888;48.606;9.630;2022-09-09T06:50:38;38.03;;;7.03;;
19495;SDS011;9888;48.606;9.630;2022-09-09T06:53:06;7.40;;;2.80;;
19495;SDS011;9888;48.606;9.630;2022-09-09T06:55:34;9.40;;;2.90;;
19495;SDS011;9888;48.606;9.630;2022-09-09T06:58:07;15.90;;;3.10;;
19495;SDS011;9888;48.606;9.630;2022-09-09T07:00:35;7.33;;;2.50;;
19495;SDS011;9888;48.606;9.630;2022-09-09T07:03:07;9.00;;;2.50;;
19495;SDS011;9888;48.606;9.630;2022-09-09T07:05:41;7.00;;;2.57;;
19495;SDS011;9888;48.606;9.630;2022-09-09T07:08:10;8.93;;;2.00;;
19495;SDS011;9888;48.606;9.630;2022-09-09T07:10:38;6.23;;;2.87;;
19495;SDS011;9888;48.606;9.630;2022-09-09T07:13:07;7.07;;;2.27;;
19495;SDS011;9888;48.606;9.630;2022-09-09T07:15:35;8.60;;;3.43;;
19495;SDS011;9888;48.606;9.630;2022-09-09T07:18:03;7.67;;;2.20;;
19495;SDS011;9888;48.606;9.630;2022-09-09T07:20:31;6.37;;;1.83;;
19495;SDS011;9888;48.606;9.630;2022-09-09T07:22:59;5.70;;;2.10;;
19495;SDS011;9888;48.606;9.630;2022-09-09T07:25:29;8.57;;;2.03;;
19495;SDS011;9888;48.606;9.630;2022-09-09T07:28:03;7.07;;;2.03;;
19495;SDS011;9888;48.606;9.630;2022-09-09T07:30:32;6.47;;;2.10;;
19495;SDS011;9888;48.606;9.630;2022-09-09T07:33:02;9.27;;;1.87;;
19495;SDS011;9888;48.606;9.630;2022-09-09T07:35:35;6.37;;;2.10;;
19495;SDS011;9888;48.606;9.630;2022-09-09T07:38:06;6.07;;;2.10;;
19495;SDS011;9888;48.606;9.630;2022-09-09T07:40:33;9.87;;;2.07;;
19495;SDS011;9888;48.606;9.630;2022-09-09T07:43:04;5.53;;;2.00;;
19495;SDS011;9888;48.606;9.630;2022-09-09T07:45:33;6.33;;;2.00;;
19495;SDS011;9888;48.606;9.630;2022-09-09T07:48:02;10.10;;;2.20;;
19495;SDS011;9888;48.606;9.630;2022-09-09T07:50:36;6.37;;;1.80;;
19495;SDS011;9888;48.606;9.630;2022-09-09T07:53:03;6.40;;;1.90;;
19495;SDS011;9888;48.606;9.630;2022-09-09T07:55:37;6.10;;;1.90;;
19495;SDS011;9888;48.606;9.630;2022-09-09T07:58:05;16.43;;;5.20;;
19495;SDS011;9888;48.606;9.630;2022-09-09T08:00:33;15.17;;;7.50;;
19495;SDS011;9888;48.606;9.630;2022-09-09T08:03:00;9.03;;;3.10;;
19495;SDS011;9888;48.606;9.630;2022-09-09T08:05:29;6.13;;;1.77;;
19495;SDS011;9888;48.606;9.630;2022-09-09T08:07:57;10.17;;;1.93;;
19495;SDS011;9888;48.606;9.630;2022-09-09T08:10:25;6.30;;;2.20;;
19495;SDS011;9888;48.606;9.630;2022-09-09T08:12:52;8.20;;;2.03;;
19495;SDS011;9888;48.606;9.630;2022-09-09T08:15:24;5.73;;;2.13;;
19495;SDS011;9888;48.606;9.630;2022-09-09T08:17:56;6.07;;;1.70;;
19495;SDS011;9888;48.606;9.630;2022-09-09T08:20:24;7.27;;;2.07;;
19495;SDS011;9888;48.606;9.630;2022-09-09T08:22:55;8.57;;;4.90;;
19495;SDS011;9888;48.606;9.630;2022-09-09T08:25:23;7.47;;;2.23;;
19495;SDS011;9888;48.606;9.630;2022-09-09T08:27:52;11.07;;;4.23;;
19495;SDS011;9888;48.606;9.630;2022-09-09T08:30:20;6.10;;;2.10;;
19495;SDS011;9888;48.606;9.630;2022-09-09T08:32:49;8.63;;;2.00;;
19495;SDS011;9888;48.606;9.630;2022-09-09T08:35:16;7.53;;;2.67;;
19495;SDS011;9888;48.606;9.630;2022-09-09T08:37:44;9.53;;;3.20;;
19495;SDS011;9888;48.606;9.630;2022-09-09T08:40:16;7.07;;;2.53;;
19495;SDS011;9888;48.606;9.630;2022-09-09T08:42:51;14.60;;;2.57;;
19495;SDS011;9888;48.606;9.630;2022-09-09T08:45:34;7.87;;;2.27;;
19495;SDS011;9888;48.606;9.630;2022-09-09T08:51:02;7.53;;;2.07;;
19495;SDS011;9888;48.606;9.630;2022-09-09T08:53:39;5.70;;;1.93;;
19495;SDS011;9888;48.606;9.630;2022-09-09T08:56:16;7.97;;;2.07;;
19495;SDS011;9888;48.606;9.630;2022-09-09T08:58:49;9.93;;;3.60;;
19495;SDS011;9888;48.606;9.630;2022-09-09T09:04:37;15.63;;;8.13;;
19495;SDS011;9888;48.606;9.630;2022-09-09T09:10:51;8.50;;;2.70;;
19495;SDS011;9888;48.606;9.630;2022-09-09T09:13:26;7.67;;;2.47;;
19495;SDS011;9888;48.606;9.630;2022-09-09T09:16:26;7.13;;;2.67;;
19495;SDS011;9888;48.606;9.630;2022-09-09T09:18:53;7.20;;;2.40;;
19495;SDS011;9888;48.606;9.630;2022-09-09T09:24:18;6.90;;;2.10;;
19495;SDS011;9888;48.606;9.630;2022-09-09T09:27:15;7.17;;;2.30;;
19495;SDS011;9888;48.606;9.630;2022-09-09T09:29:54;5.50;;;2.00;;
19495;SDS011;9888;48.606;9.630;2022-09-09T09:32:24;7.17;;;2.10;;
19495;SDS011;9888;48.606;9.630;2022-09-09T09:34:55;8.23;;;2.20;;
19495;SDS011;9888;48.606;9.630;2022-09-09T09:37:31;5.93;;;1.77;;
19495;SDS011;9888;48.606;9.630;2022-09-09T09:40:10;8.83;;;1.63;;
19495;SDS011;9888;48.606;9.630;2022-09-09T09:43:00;5.20;;;1.60;;
19495;SDS011;9888;48.606;9.630;2022-09-09T09:45:35;7.33;;;1.70;;
19495;SDS011;9888;48.606;9.630;2022-09-09T09:48:13;5.03;;;1.63;;
19495;SDS011;9888;48.606;9.630;2022-09-09T09:50:50;7.50;;;1.80;;
19495;SDS011;9888;48.606;9.630;2022-09-09T09:53:42;10.53;;;2.27;;
19495;SDS011;9888;48.606;9.630;2022-09-09T10:02:20;5.27;;;1.50;;
19495;SDS011;9888;48.606;9.630;2022-09-09T10:07:29;5.73;;;1.50;;
19495;SDS011;9888;48.606;9.630;2022-09-09T10:09:58;6.30;;;1.50;;
19495;SDS011;9888;48.606;9.630;2022-09-09T10:12:34;6.17;;;1.40;;
19495;SDS011;9888;48.606;9.630;2022-09-09T10:15:36;5.27;;;1.57;;
19495;SDS011;9888;48.606;9.630;2022-09-09T10:18:22;17.03;;;2.43;;
19495;SDS011;9888;48.606;9.630;2022-09-09T10:57:55;4.80;;;1.50;;
19495;SDS011;9888;48.606;9.630;2022-09-09T11:00:38;4.80;;;1.30;;
19495;SDS011;9888;48.606;9.630;2022-09-09T11:03:26;7.83;;;1.60;;
19495;SDS011;9888;48.606;9.630;2022-09-09T11:06:00;5.60;;;1.30;;
19495;SDS011;9888;48.606;9.630;2022-09-09T11:08:41;5.70;;;1.27;;
19495;SDS011;9888;48.606;9.630;2022-09-09T11:19:32;5.10;;;1.30;;
19495;SDS011;9888;48.606;9.630;2022-09-09T11:22:37;5.80;;;1.23;;
19495;SDS011;9888;48.606;9.630;2022-09-09T11:25:17;6.00;;;1.30;;
19495;SDS011;9888;48.606;9.630;2022-09-09T11:28:02;4.70;;;1.30;;
19495;SDS011;9888;48.606;9.630;2022-09-09T11:30:38;6.63;;;1.40;;
19495;SDS011;9888;48.606;9.630;2022-09-09T11:39:19;7.73;;;2.03;;
19495;SDS011;9888;48.606;9.630;2022-09-09T11:42:15;6.23;;;1.30;;
19495;SDS011;9888;48.606;9.630;2022-09-09T11:44:44;5.40;;;1.47;;
19495;SDS011;9888;48.606;9.630;2022-09-09T11:47:30;5.67;;;1.50;;
19495;SDS011;9888;48.606;9.630;2022-09-09T11:52:44;8.90;;;2.07;;
19495;SDS011;9888;48.606;9.630;2022-09-09T11:57:58;9.00;;;1.63;;
19495;SDS011;9888;48.606;9.630;2022-09-09T12:00:31;5.00;;;1.40;;
19495;SDS011;9888;48.606;9.630;2022-09-09T12:03:30;4.50;;;1.27;;
19495;SDS011;9888;48.606;9.630;2022-09-09T12:11:52;4.83;;;1.30;;
19495;SDS011;9888;48.606;9.630;2022-09-09T12:14:37;6.73;;;1.60;;
19495;SDS011;9888;48.606;9.630;2022-09-09T12:17:19;5.10;;;1.40;;
19495;SDS011;9888;48.606;9.630;2022-09-09T12:20:00;6.47;;;1.60;;
19495;SDS011;9888;48.606;9.630;2022-09-09T12:37:57;5.10;;;1.40;;
19495;SDS011;9888;48.606;9.630;2022-09-09T12:40:31;5.07;;;1.40;;
19495;SDS011;9888;48.606;9.630;2022-09-09T12:43:25;7.10;;;1.30;;
19495;SDS011;9888;48.606;9.630;2022-09-09T12:45:57;4.90;;;1.30;;
19495;SDS011;9888;48.606;9.630;2022-09-09T12:48:35;7.53;;;1.40;;
19495;SDS011;9888;48.606;9.630;2022-09-09T12:51:18;5.03;;;1.40;;
19495;SDS011;9888;48.606;9.630;2022-09-09T12:54:12;4.97;;;1.37;;
19495;SDS011;9888;48.606;9.630;2022-09-09T12:56:44;5.33;;;1.30;;
19495;SDS011;9888;48.606;9.630;2022-09-09T12:59:24;5.17;;;1.30;;
19495;SDS011;9888;48.606;9.630;2022-09-09T13:02:01;8.70;;;1.20;;
19495;SDS011;9888;48.606;9.630;2022-09-09T13:04:30;5.60;;;1.37;;
19495;SDS011;9888;48.606;9.630;2022-09-09T13:07:09;4.73;;;1.27;;
19495;SDS011;9888;48.606;9.630;2022-09-09T13:09:52;4.60;;;1.10;;
19495;SDS011;9888;48.606;9.630;2022-09-09T13:12:20;4.77;;;1.40;;
19495;SDS011;9888;48.606;9.630;2022-09-09T13:14:49;5.13;;;1.20;;
19495;SDS011;9888;48.606;9.630;2022-09-09T13:17:26;4.13;;;1.10;;
19495;SDS011;9888;48.606;9.630;2022-09-09T13:19:59;6.37;;;1.20;;
19495;SDS011;9888;48.606;9.630;2022-09-09T13:22:29;4.23;;;1.30;;
19495;SDS011;9888;48.606;9.630;2022-09-09T13:25:17;5.17;;;1.10;;
19495;SDS011;9888;48.606;9.630;2022-09-09T13:27:53;5.17;;;1.23;;
19495;SDS011;9888;48.606;9.630;2022-09-09T13:30:35;4.47;;;1.33;;
19495;SDS011;9888;48.606;9.630;2022-09-09T13:38:23;5.70;;;1.30;;
19495;SDS011;9888;48.606;9.630;2022-09-09T13:40:59;4.80;;;1.40;;
19495;SDS011;9888;48.606;9.630;2022-09-09T13:43:36;6.60;;;1.20;;
19495;SDS011;9888;48.606;9.630;2022-09-09T13:46:28;5.37;;;1.30;;
19495;SDS011;9888;48.606;9.630;2022-09-09T13:49:18;5.90;;;1.37;;
19495;SDS011;9888;48.606;9.630;2022-09-09T13:52:02;4.53;;;1.13;;
19495;SDS011;9888;48.606;9.630;2022-09-09T13:54:35;5.47;;;1.40;;
19495;SDS011;9888;48.606;9.630;2022-09-09T13:57:15;6.50;;;1.40;;
19495;SDS011;9888;48.606;9.630;2022-09-09T13:59:45;5.40;;;1.30;;
19495;SDS011;9888;48.606;9.630;2022-09-09T14:02:14;5.43;;;1.23;;
19495;SDS011;9888;48.606;9.630;2022-09-09T14:04:44;5.13;;;1.50;;
19495;SDS011;9888;48.606;9.630;2022-09-09T14:10:20;4.40;;;1.30;;
19495;SDS011;9888;48.606;9.630;2022-09-09T14:12:48;5.30;;;1.20;;
19495;SDS011;9888;48.606;9.630;2022-09-09T14:15:16;5.97;;;1.30;;
19495;SDS011;9888;48.606;9.630;2022-09-09T14:17:46;6.37;;;1.30;;
19495;SDS011;9888;48.606;9.630;2022-09-09T14:20:14;11.97;;;1.50;;
19495;SDS011;9888;48.606;9.630;2022-09-09T14:22:44;6.07;;;1.30;;
19495;SDS011;9888;48.606;9.630;2022-09-09T14:25:13;6.53;;;1.13;;
19495;SDS011;9888;48.606;9.630;2022-09-09T14:27:44;4.53;;;1.10;;
19495;SDS011;9888;48.606;9.630;2022-09-09T14:30:16;4.00;;;1.03;;
19495;SDS011;9888;48.606;9.630;2022-09-09T14:32:46;5.87;;;1.40;;
19495;SDS011;9888;48.606;9.630;2022-09-09T14:35:13;4.47;;;1.20;;
19495;SDS011;9888;48.606;9.630;2022-09-09T14:37:46;4.60;;;1.10;;
19495;SDS011;9888;48.606;9.630;2022-09-09T14:40:19;5.20;;;1.20;;
19495;SDS011;9888;48.606;9.630;2022-09-09T14:42:47;4.60;;;1.10;;
19495;SDS011;9888;48.606;9.630;2022-09-09T14:45:15;5.40;;;1.37;;
19495;SDS011;9888;48.606;9.630;2022-09-09T14:47:47;5.13;;;1.20;;
19495;SDS011;9888;48.606;9.630;2022-09-09T14:50:21;7.60;;;1.40;;
19495;SDS011;9888;48.606;9.630;2022-09-09T14:52:49;4.63;;;1.10;;
19495;SDS011;9888;48.606;9.630;2022-09-09T14:55:18;5.77;;;1.43;;
19495;SDS011;9888;48.606;9.630;2022-09-09T14:57:46;7.33;;;1.47;;
19495;SDS011;9888;48.606;9.630;2022-09-09T15:00:20;5.53;;;1.30;;
19495;SDS011;9888;48.606;9.630;2022-09-09T15:02:49;4.57;;;1.10;;
19495;SDS011;9888;48.606;9.630;2022-09-09T15:05:21;4.60;;;1.20;;
19495;SDS011;9888;48.606;9.630;2022-09-09T15:07:50;7.00;;;1.30;;
19495;SDS011;9888;48.606;9.630;2022-09-09T15:10:17;4.67;;;1.03;;
19495;SDS011;9888;48.606;9.630;2022-09-09T15:12:47;5.70;;;1.30;;
19495;SDS011;9888;48.606;9.630;2022-09-09T15:15:17;6.23;;;1.30;;
19495;SDS011;9888;48.606;9.630;2022-09-09T15:17:48;5.00;;;1.20;;
19495;SDS011;9888;48.606;9.630;2022-09-09T15:20:19;6.70;;;1.10;;
19495;SDS011;9888;48.606;9.630;2022-09-09T15:22:48;5.10;;;1.10;;
19495;SDS011;9888;48.606;9.630;2022-09-09T15:28:24;6.67;;;1.47;;
19495;SDS011;9888;48.606;9.630;2022-09-09T15:30:53;5.07;;;1.30;;
19495;SDS011;9888;48.606;9.630;2022-09-09T15:33:22;7.13;;;1.40;;
19495;SDS011;9888;48.606;9.630;2022-09-09T15:35:50;5.23;;;1.00;;
19495;SDS011;9888;48.606;9.630;2022-09-09T15:38:21;4.50;;;1.00;;
19495;SDS011;9888;48.606;9.630;2022-09-09T15:40:56;5.07;;;1.13;;
19495;SDS011;9888;48.606;9.630;2022-09-09T15:43:25;4.93;;;1.00;;
19495;SDS011;9888;48.606;9.630;2022-09-09T15:45:54;8.03;;;1.20;;
19495;SDS011;9888;48.606;9.630;2022-09-09T15:48:34;6.83;;;1.10;;
19495;SDS011;9888;48.606;9.630;2022-09-09T15:51:02;5.20;;;1.03;;
19495;SDS011;9888;48.606;9.630;2022-09-09T15:53:30;4.73;;;1.00;;
19495;SDS011;9888;48.606;9.630;2022-09-09T15:55:58;5.53;;;1.10;;
19495;SDS011;9888;48.606;9.630;2022-09-09T15:58:29;4.17;;;0.90;;
19495;SDS011;9888;48.606;9.630;2022-09-09T16:01:03;5.37;;;1.13;;
19495;SDS011;9888;48.606;9.630;2022-09-09T16:06:59;5.50;;;1.10;;
19495;SDS011;9888;48.606;9.630;2022-09-09T16:09:31;4.40;;;1.10;;
19495;SDS011;9888;48.606;9.630;2022-09-09T16:12:02;4.60;;;1.00;;
19495;SDS011;9888;48.606;9.630;2022-09-09T16:14:41;7.00;;;1.20;;
19495;SDS011;9888;48.606;9.630;2022-09-09T16:17:09;4.67;;;1.20;;
19495;SDS011;9888;48.606;9.630;2022-09-09T16:19:38;13.60;;;1.60;;
19495;SDS011;9888;48.606;9.630;2022-09-09T16:22:05;4.80;;;1.10;;
19495;SDS011;9888;48.606;9.630;2022-09-09T16:24:34;6.70;;;1.00;;
19495;SDS011;9888;48.606;9.630;2022-09-09T16:27:02;6.57;;;1.00;;
19495;SDS011;9888;48.606;9.630;2022-09-09T16:29:30;8.63;;;1.40;;
19495;SDS011;9888;48.606;9.630;2022-09-09T16:31:58;5.40;;;1.10;;
19495;SDS011;9888;48.606;9.630;2022-09-09T16:34:26;8.33;;;1.20;;
19495;SDS011;9888;48.606;9.630;2022-09-09T16:36:53;10.80;;;1.37;;
19495;SDS011;9888;48.606;9.630;2022-09-09T16:39:27;15.70;;;1.17;;
19495;SDS011;9888;48.606;9.630;2022-09-09T16:42:02;8.63;;;1.00;;
19495;SDS011;9888;48.606;9.630;2022-09-09T16:44:30;7.70;;;1.33;;
19495;SDS011;9888;48.606;9.630;2022-09-09T16:46:58;4.00;;;0.83;;
19495;SDS011;9888;48.606;9.630;2022-09-09T16:49:26;4.90;;;1.10;;
19495;SDS011;9888;48.606;9.630;2022-09-09T16:51:56;6.63;;;1.17;;
19495;SDS011;9888;48.606;9.630;2022-09-09T16:54:25;8.40;;;1.37;;
19495;SDS011;9888;48.606;9.630;2022-09-09T16:56:52;5.60;;;1.20;;
19495;SDS011;9888;48.606;9.630;2022-09-09T16:59:20;5.00;;;1.07;;
19495;SDS011;9888;48.606;9.630;2022-09-09T17:01:49;4.30;;;0.90;;
19495;SDS011;9888;48.606;9.630;2022-09-09T17:04:20;8.93;;;1.00;;
19495;SDS011;9888;48.606;9.630;2022-09-09T17:06:52;4.33;;;0.90;;
19495;SDS011;9888;48.606;9.630;2022-09-09T17:09:21;4.23;;;0.90;;
19495;SDS011;9888;48.606;9.630;2022-09-09T17:11:54;4.97;;;1.00;;
19495;SDS011;9888;48.606;9.630;2022-09-09T17:14:22;4.40;;;0.90;;
19495;SDS011;9888;48.606;9.630;2022-09-09T17:16:50;4.57;;;0.90;;
19495;SDS011;9888;48.606;9.630;2022-09-09T17:19:17;7.53;;;1.00;;
19495;SDS011;9888;48.606;9.630;2022-09-09T17:21:46;5.50;;;1.00;;
19495;SDS011;9888;48.606;9.630;2022-09-09T17:24:14;5.30;;;0.90;;
19495;SDS011;9888;48.606;9.630;2022-09-09T17:26:41;4.70;;;1.00;;
19495;SDS011;9888;48.606;9.630;2022-09-09T17:29:11;3.90;;;0.90;;
19495;SDS011;9888;48.606;9.630;2022-09-09T17:35:05;5.40;;;1.10;;
19495;SDS011;9888;48.606;9.630;2022-09-09T17:37:34;6.17;;;1.10;;
19495;SDS011;9888;48.606;9.630;2022-09-09T17:40:02;5.37;;;1.10;;
19495;SDS011;9888;48.606;9.630;2022-09-09T17:42:31;8.47;;;0.90;;
19495;SDS011;9888;48.606;9.630;2022-09-09T17:44:58;4.67;;;1.00;;
19495;SDS011;9888;48.606;9.630;2022-09-09T17:47:26;5.60;;;1.00;;
19495;SDS011;9888;48.606;9.630;2022-09-09T17:49:57;4.10;;;0.93;;
19495;SDS011;9888;48.606;9.630;2022-09-09T17:56:01;4.97;;;1.23;;
19495;SDS011;9888;48.606;9.630;2022-09-09T17:58:34;5.67;;;1.10;;
19495;SDS011;9888;48.606;9.630;2022-09-09T18:01:07;6.50;;;1.10;;
19495;SDS011;9888;48.606;9.630;2022-09-09T18:03:39;5.40;;;1.10;;
19495;SDS011;9888;48.606;9.630;2022-09-09T18:06:11;6.00;;;1.20;;
19495;SDS011;9888;48.606;9.630;2022-09-09T18:08:50;4.90;;;1.10;;
19495;SDS011;9888;48.606;9.630;2022-09-09T18:11:20;4.57;;;1.20;;
19495;SDS011;9888;48.606;9.630;2022-09-09T18:13:51;4.10;;;1.00;;
19495;SDS011;9888;48.606;9.630;2022-09-09T18:16:22;4.77;;;1.10;;
19495;SDS011;9888;48.606;9.630;2022-09-09T18:18:54;7.23;;;1.30;;
19495;SDS011;9888;48.606;9.630;2022-09-09T18:21:48;9.07;;;1.20;;
19495;SDS011;9888;48.606;9.630;2022-09-09T18:24:21;5.30;;;1.10;;
19495;SDS011;9888;48.606;9.630;2022-09-09T18:26:58;5.60;;;1.00;;
19495;SDS011;9888;48.606;9.630;2022-09-09T18:29:33;4.27;;;1.00;;
19495;SDS011;9888;48.606;9.630;2022-09-09T18:32:06;5.40;;;1.00;;
19495;SDS011;9888;48.606;9.630;2022-09-09T18:34:37;7.97;;;1.10;;
19495;SDS011;9888;48.606;9.630;2022-09-09T18:37:05;13.23;;;1.53;;
19495;SDS011;9888;48.606;9.630;2022-09-09T18:39:35;5.00;;;1.03;;
19495;SDS011;9888;48.606;9.630;2022-09-09T18:42:12;7.27;;;1.20;;
19495;SDS011;9888;48.606;9.630;2022-09-09T18:44:40;4.47;;;1.10;;
19495;SDS011;9888;48.606;9.630;2022-09-09T18:47:48;4.73;;;1.10;;
19495;SDS011;9888;48.606;9.630;2022-09-09T18:50:20;5.10;;;1.07;;
19495;SDS011;9888;48.606;9.630;2022-09-09T18:53:18;4.20;;;1.10;;
19495;SDS011;9888;48.606;9.630;2022-09-09T18:56:47;5.00;;;1.10;;
19495;SDS011;9888;48.606;9.630;2022-09-09T18:59:18;7.00;;;1.20;;
19495;SDS011;9888;48.606;9.630;2022-09-09T19:01:53;4.40;;;1.10;;
19495;SDS011;9888;48.606;9.630;2022-09-09T19:04:21;5.23;;;0.97;;
19495;SDS011;9888;48.606;9.630;2022-09-09T19:06:51;6.60;;;1.00;;
19495;SDS011;9888;48.606;9.630;2022-09-09T19:09:29;6.07;;;1.20;;
19495;SDS011;9888;48.606;9.630;2022-09-09T19:11:58;6.13;;;1.20;;
19495;SDS011;9888;48.606;9.630;2022-09-09T19:14:28;5.07;;;1.10;;
19495;SDS011;9888;48.606;9.630;2022-09-09T19:16:58;5.03;;;1.27;;
19495;SDS011;9888;48.606;9.630;2022-09-09T19:19:31;7.90;;;1.40;;
19495;SDS011;9888;48.606;9.630;2022-09-09T19:22:00;9.87;;;1.50;;
19495;SDS011;9888;48.606;9.630;2022-09-09T19:24:38;9.10;;;1.30;;
19495;SDS011;9888;48.606;9.630;2022-09-09T19:27:05;6.30;;;1.20;;
19495;SDS011;9888;48.606;9.630;2022-09-09T19:29:40;7.03;;;1.10;;
19495;SDS011;9888;48.606;9.630;2022-09-09T19:32:19;4.90;;;1.00;;
19495;SDS011;9888;48.606;9.630;2022-09-09T19:38:10;7.40;;;1.23;;
19495;SDS011;9888;48.606;9.630;2022-09-09T19:40:40;5.20;;;1.27;;
19495;SDS011;9888;48.606;9.630;2022-09-09T19:43:10;5.50;;;1.00;;
19495;SDS011;9888;48.606;9.630;2022-09-09T19:45:39;4.40;;;1.17;;
19495;SDS011;9888;48.606;9.630;2022-09-09T19:48:12;5.27;;;1.10;;
19495;SDS011;9888;48.606;9.630;2022-09-09T19:50:42;4.27;;;1.00;;